createdAt,value
2022-08-27T00:03:12.685Z,10.03
2022-08-27T00:07:04.636Z,14.57
2022-08-27T00:10:42.700Z,12.30
2022-08-27T00:14:35.680Z,10.93
2022-08-27T00:18:13.899Z,9.85
2022-08-27T00:22:05.640Z,14.37
2022-08-27T00:25:43.692Z,11.20
2022-08-27T00:29:35.630Z,16.27
2022-08-27T00:33:20.660Z,16.10
2022-08-27T00:37:13.645Z,13.32
2022-08-27T00:40:51.722Z,10.63
2022-08-27T00:44:46.650Z,14.53
2022-08-27T00:48:43.682Z,10.57
2022-08-27T00:52:41.709Z,15.45
2022-08-27T00:56:33.755Z,16.65
2022-08-27T01:00:24.684Z,14.17
2022-08-27T01:04:18.737Z,11.47
2022-08-27T01:08:10.748Z,11.80
2022-08-27T01:11:56.806Z,15.40
2022-08-27T01:15:41.682Z,12.52
2022-08-27T01:19:38.129Z,13.90
2022-08-27T01:23:48.731Z,13.63
2022-08-27T01:27:43.649Z,18.58
2022-08-27T01:31:28.685Z,14.10
2022-08-27T01:35:17.897Z,15.85
2022-08-27T01:39:02.683Z,11.77
2022-08-27T01:42:59.687Z,14.07
2022-08-27T01:46:38.408Z,11.95
2022-08-27T01:50:36.654Z,15.95
2022-08-27T01:54:21.695Z,17.88
2022-08-27T01:58:14.103Z,14.50
2022-08-27T02:01:54.939Z,14.60
2022-08-27T02:05:46.695Z,12.88
2022-08-27T02:09:32.676Z,14.45
2022-08-27T02:13:25.696Z,12.60
2022-08-27T02:17:04.149Z,13.57
2022-08-27T02:20:57.697Z,14.33
2022-08-27T02:24:44.716Z,15.35
2022-08-27T02:28:29.746Z,13.57
2022-08-27T02:32:17.608Z,14.32
2022-08-27T02:36:22.673Z,16.20
2022-08-27T02:40:01.719Z,14.37
2022-08-27T02:43:53.699Z,17.20
2022-08-27T02:47:32.014Z,18.88
2022-08-27T02:51:23.729Z,13.95
2022-08-27T02:55:09.716Z,14.83
2022-08-27T02:59:02.719Z,15.80
2022-08-27T03:02:41.488Z,15.27
2022-08-27T03:06:33.711Z,15.32
2022-08-27T03:10:26.735Z,13.18
2022-08-27T03:14:11.702Z,21.33
2022-08-27T03:18:25.727Z,14.43
2022-08-27T03:22:17.738Z,17.27
2022-08-27T03:26:05.740Z,16.20
2022-08-27T03:30:04.790Z,16.70
2022-08-27T03:33:56.718Z,14.90
2022-08-27T03:37:41.742Z,15.30
2022-08-27T03:41:39.931Z,16.67
2022-08-27T03:46:01.006Z,15.27
2022-08-27T03:49:37.745Z,17.55
2022-08-27T03:53:31.749Z,16.73
2022-08-27T03:57:30.765Z,14.77
2022-08-27T04:01:29.808Z,15.85
2022-08-27T04:05:21.777Z,15.57
2022-08-27T04:09:06.766Z,16.00
2022-08-27T04:13:05.766Z,14.27
2022-08-27T04:16:57.790Z,19.43
2022-08-27T04:20:42.737Z,14.57
2022-08-27T04:24:35.771Z,15.98
2022-08-27T04:28:14.831Z,13.95
2022-08-27T04:32:06.753Z,18.13
2022-08-27T04:35:58.760Z,13.63
2022-08-27T04:39:37.265Z,20.45
2022-08-27T04:43:28.761Z,17.88
2022-08-27T04:47:13.771Z,15.32
2022-08-27T04:51:05.766Z,15.90
2022-08-27T04:54:45.092Z,13.10
2022-08-27T04:58:38.755Z,15.70
2022-08-27T05:02:23.788Z,16.45
2022-08-27T05:06:12.240Z,20.13
2022-08-27T05:09:56.832Z,14.93
2022-08-27T05:13:49.807Z,18.35
2022-08-27T05:17:37.769Z,18.30
2022-08-27T05:21:25.882Z,17.73
2022-08-27T05:25:12.787Z,14.63
2022-08-27T05:28:57.874Z,14.52
2022-08-27T05:32:42.801Z,17.48
2022-08-27T05:36:37.801Z,12.13
2022-08-27T05:40:27.169Z,14.30
2022-08-27T05:48:21.100Z,16.63
2022-08-27T05:52:12.812Z,12.45
2022-08-27T05:55:57.793Z,18.25
2022-08-27T06:00:07.800Z,13.38
2022-08-27T06:03:52.727Z,18.70
2022-08-27T06:07:46.851Z,13.50
2022-08-27T06:11:31.811Z,14.10
2022-08-27T06:15:24.834Z,17.15
2022-08-27T06:19:20.885Z,12.30
2022-08-27T06:23:05.820Z,17.97
2022-08-27T06:27:04.829Z,11.98
2022-08-27T06:30:57.887Z,15.63
2022-08-27T06:34:42.843Z,16.25
2022-08-27T06:38:42.854Z,14.70
2022-08-27T06:42:34.820Z,16.37
2022-08-27T06:46:25.874Z,16.35
2022-08-27T06:50:27.362Z,12.80
2022-08-27T06:54:19.828Z,14.18
2022-08-27T06:58:04.856Z,13.07
2022-08-27T07:02:03.822Z,14.17
2022-08-27T07:05:49.151Z,15.35
2022-08-27T07:09:40.833Z,12.95
2022-08-27T07:13:25.861Z,13.57
2022-08-27T07:17:16.505Z,12.50
2022-08-27T07:21:01.866Z,13.13
2022-08-27T07:24:53.855Z,10.55
2022-08-27T07:28:32.134Z,16.83
2022-08-27T07:32:23.878Z,15.02
2022-08-27T07:36:15.994Z,15.33
2022-08-27T07:40:07.919Z,14.33
2022-08-27T07:44:11.897Z,15.90
2022-08-27T07:48:03.956Z,16.55
2022-08-27T07:51:48.883Z,13.50
2022-08-27T07:55:33.928Z,14.73
2022-08-27T07:59:19.872Z,13.07
2022-08-27T08:03:16.885Z,17.33
2022-08-27T08:07:02.518Z,15.00
2022-08-27T08:10:54.910Z,14.50
2022-08-27T08:14:39.916Z,11.57
2022-08-27T08:18:25.176Z,12.02
2022-08-27T08:22:09.900Z,15.55
2022-08-27T08:26:01.897Z,14.70
2022-08-27T08:29:40.222Z,12.07
2022-08-27T08:33:31.888Z,11.17
2022-08-27T08:37:16.899Z,14.75
2022-08-27T08:41:09.904Z,16.17
2022-08-27T08:44:58.903Z,15.38
2022-08-27T08:48:54.920Z,13.43
2022-08-27T08:52:57.899Z,14.30
2022-08-27T08:57:19.917Z,10.38
2022-08-27T09:01:00.851Z,15.37
2022-08-27T09:04:52.924Z,12.67
2022-08-27T09:08:48.539Z,11.00
2022-08-27T09:12:33.262Z,11.52
2022-08-27T09:16:24.949Z,14.20
2022-08-27T09:20:13.283Z,11.82
2022-08-27T09:24:15.948Z,13.35
2022-08-27T09:28:38.985Z,11.13
2022-08-27T09:32:34.135Z,12.83
2022-08-27T09:36:24.942Z,17.27
2022-08-27T09:40:39.052Z,11.60
2022-08-27T09:44:38.933Z,14.33
2022-08-27T09:48:42.941Z,14.32
2022-08-27T09:52:47.964Z,10.95
2022-08-27T09:56:42.949Z,13.97
2022-08-27T10:00:23.399Z,13.93
2022-08-27T10:04:22.015Z,11.60
2022-08-27T10:08:18.998Z,15.05
2022-08-27T10:12:25.958Z,13.83
2022-08-27T10:16:42.261Z,9.63
2022-08-27T10:20:45.970Z,13.80
2022-08-27T10:24:51.941Z,12.03
2022-08-27T10:29:02.977Z,10.93
2022-08-27T10:33:10.585Z,13.38
2022-08-27T10:37:07.985Z,16.10
2022-08-27T10:41:19.007Z,9.73
2022-08-27T10:45:08.402Z,10.10
2022-08-27T10:49:10.992Z,8.02
2022-08-27T10:53:07.023Z,10.67
2022-08-27T10:57:28.914Z,14.45
2022-08-27T11:01:22.624Z,16.13
2022-08-27T11:05:37.027Z,8.30
2022-08-27T11:09:40.992Z,10.05
2022-08-27T11:13:43.005Z,9.05
2022-08-27T11:17:42.517Z,9.50
2022-08-27T11:21:58.011Z,10.15
2022-08-27T11:26:02.537Z,9.07
2022-08-27T11:30:06.050Z,11.63
2022-08-27T11:33:54.014Z,12.37
2022-08-27T11:37:53.809Z,10.35
2022-08-27T11:42:00.023Z,16.50
2022-08-27T11:46:06.013Z,13.93
2022-08-27T11:49:54.445Z,9.18
2022-08-27T11:53:52.301Z,8.80
2022-08-27T11:57:40.028Z,8.95
2022-08-27T12:01:47.076Z,10.60
2022-08-27T12:05:37.082Z,11.38
2022-08-27T12:09:36.052Z,12.38
2022-08-27T12:13:38.020Z,11.90
2022-08-27T12:17:48.038Z,11.13
2022-08-27T12:21:50.020Z,11.07
2022-08-27T12:25:35.236Z,8.63
2022-08-27T12:29:52.093Z,10.00
2022-08-27T12:33:48.067Z,7.85
2022-08-27T12:37:31.918Z,9.43
2022-08-27T12:41:24.038Z,17.50
2022-08-27T12:45:02.377Z,8.40
2022-08-27T12:49:38.258Z,10.13
2022-08-27T12:53:45.073Z,9.95
2022-08-27T12:57:58.079Z,9.03
2022-08-27T13:02:09.167Z,10.77
2022-08-27T13:06:04.070Z,9.00
2022-08-27T13:09:55.607Z,8.73
2022-08-27T13:13:56.108Z,9.40
2022-08-27T13:17:50.081Z,9.30
2022-08-27T13:21:45.103Z,9.57
2022-08-27T13:25:50.267Z,8.73
2022-08-27T13:29:45.106Z,8.75
2022-08-27T13:33:37.117Z,10.38
2022-08-27T13:37:35.157Z,11.03
2022-08-27T13:41:17.657Z,14.50
2022-08-27T13:45:12.102Z,12.48
2022-08-27T13:49:00.165Z,8.18
2022-08-27T13:53:17.107Z,10.23
2022-08-27T13:57:16.105Z,12.90
2022-08-27T14:01:01.135Z,15.10
2022-08-27T14:04:57.123Z,12.70
2022-08-27T14:08:40.028Z,11.40
2022-08-27T14:12:43.099Z,12.10
2022-08-27T14:16:35.173Z,11.68
2022-08-27T14:20:15.889Z,12.27
2022-08-27T14:24:07.102Z,10.52
2022-08-27T14:27:54.171Z,10.60
2022-08-27T14:31:39.278Z,13.10
2022-08-27T14:35:25.413Z,11.00
2022-08-27T14:39:18.157Z,11.30
2022-08-27T14:43:00.473Z,15.13
2022-08-27T14:46:54.204Z,11.67
2022-08-27T14:50:39.117Z,11.07
2022-08-27T14:54:29.034Z,12.75
2022-08-27T14:58:18.165Z,12.45
2022-08-27T15:02:12.163Z,12.17
2022-08-27T15:06:05.138Z,11.00
2022-08-27T15:09:44.431Z,13.50
2022-08-27T15:13:38.432Z,13.30
2022-08-27T15:17:35.137Z,12.13
2022-08-27T15:21:28.180Z,13.70
2022-08-27T15:25:22.175Z,13.27
2022-08-27T15:29:07.157Z,12.15
2022-08-27T15:32:56.310Z,13.48
2022-08-27T15:36:41.181Z,15.07
2022-08-27T15:40:34.288Z,10.20
2022-08-27T15:44:19.162Z,14.38
2022-08-27T15:48:05.270Z,13.63
2022-08-27T15:51:51.164Z,14.50
2022-08-27T15:55:48.151Z,13.05
2022-08-27T15:59:27.521Z,11.57
2022-08-27T16:03:28.190Z,16.50
2022-08-27T16:07:21.120Z,12.10
2022-08-27T16:11:13.209Z,15.48
2022-08-27T16:14:51.469Z,13.85
2022-08-27T16:18:46.190Z,12.48
2022-08-27T16:22:24.525Z,9.50
2022-08-27T16:26:17.183Z,14.47
2022-08-27T16:30:02.214Z,16.00
2022-08-27T16:33:56.223Z,9.85
2022-08-27T16:37:58.216Z,14.10
2022-08-27T16:41:50.232Z,16.10
2022-08-27T16:45:37.211Z,12.68
2022-08-27T16:49:54.265Z,18.77
2022-08-27T16:53:48.189Z,14.02
2022-08-27T16:57:26.359Z,12.82
2022-08-27T17:01:21.311Z,16.60
2022-08-27T17:05:33.514Z,19.58
2022-08-27T17:09:25.245Z,15.73
2022-08-27T17:13:17.253Z,14.55
2022-08-27T17:17:02.238Z,15.23
2022-08-27T17:20:48.918Z,13.27
2022-08-27T17:24:40.240Z,16.13
2022-08-27T17:28:18.572Z,16.73
2022-08-27T17:32:10.227Z,13.00
2022-08-27T17:35:55.239Z,13.93
2022-08-27T17:39:47.254Z,15.97
2022-08-27T17:43:46.240Z,22.02
2022-08-27T17:47:38.235Z,17.27
2022-08-27T17:51:26.227Z,13.85
2022-08-27T17:55:25.251Z,15.13
2022-08-27T17:59:17.240Z,19.40
2022-08-27T18:03:04.253Z,16.55
2022-08-27T18:06:56.256Z,18.63
2022-08-27T18:10:35.330Z,20.83
2022-08-27T18:14:27.322Z,17.67
2022-08-27T18:18:06.345Z,21.83
2022-08-27T18:21:59.264Z,28.02
2022-08-27T18:25:50.244Z,34.85
2022-08-27T18:29:42.254Z,24.48
2022-08-27T18:33:20.380Z,16.90
2022-08-27T18:37:12.285Z,15.20
2022-08-27T18:41:01.267Z,16.27
2022-08-27T18:44:54.280Z,15.68
2022-08-27T18:48:32.417Z,13.48
2022-08-27T18:52:27.269Z,12.33
2022-08-27T18:56:12.272Z,16.07
2022-08-27T19:00:08.272Z,20.15
2022-08-27T19:03:58.277Z,15.55
2022-08-27T19:07:50.311Z,15.27
2022-08-27T19:11:28.388Z,20.23
2022-08-27T19:15:20.295Z,15.60
2022-08-27T19:19:05.300Z,16.25
2022-08-27T19:22:57.294Z,16.73
2022-08-27T19:26:35.412Z,15.75
2022-08-27T19:30:27.320Z,21.97
2022-08-27T19:34:12.304Z,22.63
2022-08-27T19:38:04.308Z,17.70
2022-08-27T19:42:00.322Z,19.75
2022-08-27T19:45:45.371Z,13.85
2022-08-27T19:49:37.353Z,13.97
2022-08-27T19:53:15.721Z,17.60
2022-08-27T19:57:07.300Z,18.35
2022-08-27T20:00:46.070Z,17.10
2022-08-27T20:04:51.368Z,18.48
2022-08-27T20:08:44.344Z,23.33
2022-08-27T20:12:30.436Z,18.30
2022-08-27T20:16:15.350Z,19.20
2022-08-27T20:20:08.329Z,20.50
2022-08-27T20:23:53.352Z,20.85
2022-08-27T20:27:38.446Z,18.63
2022-08-27T20:31:24.375Z,15.45
2022-08-27T20:35:18.330Z,20.42
2022-08-27T20:39:03.322Z,22.63
2022-08-27T20:42:48.413Z,20.48
2022-08-27T20:46:36.341Z,18.77
2022-08-27T20:50:24.409Z,20.13
2022-08-27T20:54:09.342Z,17.65
2022-08-27T20:58:19.390Z,19.63
2022-08-27T21:01:58.296Z,22.20
2022-08-27T21:05:53.346Z,20.27
2022-08-27T21:09:52.657Z,23.23
2022-08-27T21:13:56.178Z,20.10
2022-08-27T21:17:55.353Z,22.92
2022-08-27T21:21:47.398Z,18.60
2022-08-27T21:25:32.368Z,21.97
2022-08-27T21:29:25.395Z,20.38
2022-08-27T21:33:03.454Z,18.98
2022-08-27T21:36:57.371Z,19.48
2022-08-27T21:40:43.425Z,22.13
2022-08-27T21:44:46.398Z,20.40
2022-08-27T21:48:38.360Z,20.30
2022-08-27T21:52:23.365Z,20.92
2022-08-27T21:56:15.373Z,25.50
2022-08-27T21:59:56.449Z,25.43
2022-08-27T22:03:50.363Z,28.57
2022-08-27T22:07:35.391Z,26.95
2022-08-27T22:11:27.383Z,25.25
2022-08-27T22:15:08.448Z,26.77
2022-08-27T22:19:00.383Z,24.07
2022-08-27T22:22:45.435Z,20.52
2022-08-27T22:26:37.423Z,22.27
2022-08-27T22:30:16.439Z,23.92
2022-08-27T22:34:08.377Z,21.63
2022-08-27T22:37:53.618Z,22.70
2022-08-27T22:41:47.595Z,20.60
2022-08-27T22:45:34.395Z,22.13
2022-08-27T22:49:26.397Z,22.98
2022-08-27T22:53:04.463Z,19.23
2022-08-27T22:56:56.401Z,21.07
2022-08-27T23:00:46.475Z,23.35
2022-08-27T23:04:54.883Z,24.08
2022-08-27T23:08:41.413Z,25.02
2022-08-27T23:12:33.395Z,21.07
2022-08-27T23:16:22.474Z,20.65
2022-08-27T23:20:16.424Z,23.02
2022-08-27T23:23:54.532Z,24.05
2022-08-27T23:27:46.422Z,24.55
2022-08-27T23:31:24.567Z,22.97
2022-08-27T23:35:16.452Z,27.17
2022-08-27T23:39:01.426Z,26.25
2022-08-27T23:43:01.433Z,24.55
2022-08-27T23:47:00.451Z,21.07
2022-08-27T23:50:52.439Z,21.37
2022-08-27T23:54:37.420Z,25.45
2022-08-27T23:58:36.420Z,24.98
